Karlsruhe, North Dakota
Current Conditions -  °F | °C
As of 12:54 PM on Tuesday 21 Oct 2014 (Local Time) from KMOT Reporting Station
Clear Clear  
Wind Chill: 65°   Ceiling: Unl
Heat Index: 65°   Visibility: 10mi
Dew Point: 40°   Wind: 12mph
Humidity: 40%   Direction: 110°ESE
Pressure: 29.72"   Gusts: NA
Location:  48.09°N, 100.62°W
Report Text: KMOT 211754Z 11010KT 10SM CLR 18/04 A2972 RMK AO2 SLP066 T01830044 10183 20050 58022
Loading
Personal Weather Stations






























Interactive Weather Map
Tropical Storm Tracking
New forecast layout! Learn more

10-Day Weather Forecast

Advertisements
Track Severe Weather on mobile